메인 페이지
METAR-TAF:

METAR-TAF

공항 :

비숍, 캘리포니아, 미국

위도: 37-22-16N, 경도: 118-21-29W, 고도: 1256m

현재 날씨관측

예보는 1 시간 3분 전, 15:56시(UTC)에 발표되었습니다.
3kt
온도 27°C
습도 34%
기압 1023 hPa
시정: 16.1km
맑음

METAR: KBIH 171556Z AUTO 36003KT 10SM CLR 27/10 A3022 RMK AO2 SLP181 T02670100

시각: 09:59 (16:59 UTC)

예보

예보는 5 시간 31분 전, 11:28시(UTC)에 발표되었습니다.
예보 대상 시간: 17일 12시부터 18일 12시까지 (UTC)
북북서6kt
시정: 10km
고도 15000ft 상공 구름 조금
17일 1900시부터 (UTC)
11kt
시정: 10km
고도 12000ft 상공 구름 보통
17일 2300시부터 (UTC)
10kt
시정: 10km
고도 12000ft 상공 구름 보통
18일 0400시부터 (UTC)
8kt
시정: 10km
고도 12000ft 상공 구름 조금

TAF: KBIH 171128Z 1712/1812 34006KT P6SM FEW150 FM171900 17011KT P6SM SCT120 FM172300 27010KT P6SM SCT120 FM180400 35008KT P6SM FEW120

4,000개 이상의 공항 관측 자료 및 예보 (METAR 및 TAF 보고).

지도상에서 검색 가능한 기상관측소가 노란 점과 빨간 점으로 표시되어 있습니다.

기상관측소 명을 보려면 표시 위로 마우스를 이동하세요.

날씨 관측과 예보를 보려면 클릭하세요.

지도 변경 : 확대하려면 엑스 표시가 있는 녹색 버튼, 축소하려면 빼기 표시가 있는 녹색 버튼, 다음 페이지의 지도를 보려면 녹색 화살표를 클릭하세요.


METAR-TAF: